Flight Track Log - Related Links

Times and Time Zones

All times are in EDT time to prevent confusion due to time zone crossing. See the N496DA flight status page for this flight to view local times or setup timezone preferences in your user account.

Time Position Orientation Groundspeed Altitude Reporting Facility
EDT Latitude Longitude Course Direction KTS MPH feet Rate Location/Type
Fri 10:17:11 AM 28.7833 -81.2167 24° Northeast 110 127 600  Level Orlando TRACON
Fri 10:18:29 AM 28.8167 -81.2000 24° Northeast 110 127 1,400 632 Climbing Orlando TRACON
Fri 10:19:24 AM 28.8333 -81.1667 60° Northeast 109 125 2,000 375 Climbing Orlando TRACON
Fri 10:20:21 AM 28.8497 -81.1456 48° Northeast 122 140 2,100  Climbing Jacksonville Center
Fri 10:21:29 AM 28.8700 -81.1072 59° Northeast 124 143 2,000 -47 Descending Jacksonville Center
Fri 10:22:30 AM 28.8842 -81.0761 63° Northeast 119 137 2,000  Level Jacksonville Center
Fri 10:23:31 AM 28.8983 -81.0403 66° East 119 137 2,000  Level Jacksonville Center
Fri 10:24:32 AM 28.9186 -81.0092 53° Northeast 119 137 2,000 197 Level Jacksonville Center
Fri 10:25:33 AM 28.9328 -80.9733 66° East 119 137 2,400 492 Climbing Jacksonville Center
Fri 10:26:34 AM 28.9533 -80.9539 40° Northeast 131 151 3,000 310 Climbing Jacksonville Center
Fri 10:27:29 AM 28.9889 -80.9483 North 148 170 3,000 52 Level Jacksonville Center
Fri 10:28:30 AM 29.0286 -80.9525 355° North 137 158 3,100  Climbing Jacksonville Center
Fri 10:29:30 AM 29.0661 -80.9542 358° North 140 161 3,000  Descending Jacksonville Center
Fri 10:30:31 AM 29.1078 -80.9556 358° North 140 161 3,100 49 Climbing Jacksonville Center
Fri 10:31:32 AM 29.1475 -80.9597 355° North 142 163 3,100  Level Jacksonville Center
Fri 10:32:33 AM 29.1853 -80.9683 349° North 139 160 3,100  Level Jacksonville Center
Fri 10:33:34 AM 29.2250 -80.9772 349° North 140 161 3,100  Level Jacksonville Center
Fri 10:34:41 AM 29.2692 -80.9881 348° North 140 161 3,100  Level Jacksonville Center
Fri 10:35:43 AM 29.3047 -80.9994 344° North 140 161 3,100  Level Jacksonville Center
Fri 10:36:43 AM 29.3425 -81.0131 343° North 139 160 3,100 -98 Level Jacksonville Center
Fri 10:37:45 AM 29.3844 -81.0242 347° North 142 163 2,900 -344 Descending Jacksonville Center
Fri 10:38:45 AM 29.4139 -81.0497 323° Northwest 153 176 2,400 -520 Descending Jacksonville Center
Fri 10:39:52 AM 29.4314 -81.0947 294° West 143 165 1,800 -372 Descending Jacksonville Center
Fri 10:40:54 AM 29.4444 -81.1375 289° West 126 145 1,600 -49 Descending Jacksonville Center
Fri 10:41:54 AM 29.4553 -81.1753 288° West 120 138 1,700  Climbing Jacksonville Center
Fri 10:42:55 AM 29.4322 -81.1664 161° South 112 129 1,600 -49 Descending Jacksonville Center
Fri 10:43:56 AM 29.4050 -81.1547 160° South 102 117 1,600  Level Jacksonville Center
Fri 10:44:58 AM 29.3736 -81.1433 162° South 108 124 1,600 -49 Level Jacksonville Center
Fri 10:45:58 AM 29.3483 -81.1319 159° South 104 120 1,500 -517 Descending Jacksonville Center
Fri 10:46:54 AM 29.3233 -81.1253 167° South 97 112 600 -382 Descending Jacksonville Center
Fri 10:47:48 AM 29.3000 -81.1161 161° South 93 107 800 470 Climbing Jacksonville Center
Fri 10:48:49 AM 29.2814 -81.1283 210° Southwest 114 131 1,500 344 Climbing Jacksonville Center
Fri 10:49:50 AM 29.2861 -81.1689 278° West 136 157 1,500  Level Jacksonville Center
Fri 10:50:51 AM 29.2931 -81.2092 281° West 131 151 1,500 295 Level Jacksonville Center
Fri 10:51:52 AM 29.2808 -81.2428 247° West 114 131 2,100 563 Climbing Jacksonville Center
Fri 10:52:59 AM 29.2625 -81.2786 240° Southwest 109 125 2,700 422 Climbing Jacksonville Center
Fri 10:54:00 AM 29.2353 -81.2672 160° South 101 116 3,000 259 Climbing Jacksonville Center
Fri 10:54:55 AM 29.2100 -81.2533 154° Southeast 111 128 3,200 492 Climbing Jacksonville Center
Fri 10:56:02 AM 29.1853 -81.2633 199° South 95 109 4,000 393 Climbing Jacksonville Center
Fri 10:56:57 AM 29.1603 -81.2781 207° Southwest 119 137 4,000 52 Level Jacksonville Center
Fri 10:57:58 AM 29.1333 -81.2975 212° Southwest 113 130 4,100  Climbing Jacksonville Center
Fri 10:58:59 AM 29.1067 -81.3169 213° Southwest 113 130 4,000 -52 Descending Jacksonville Center
Fri 10:59:54 AM 29.0836 -81.3244 196° South 106 122 4,000  Level Jacksonville Center
Fri 11:01:01 AM 29.0503 -81.3178 170° South 101 116 4,000  Level Jacksonville Center
Fri 11:02:02 AM 29.0208 -81.3089 165° South 106 122 4,000  Level Jacksonville Center
Fri 11:02:56 AM 28.9936 -81.3069 176° South 109 125 4,000 52 Level Jacksonville Center
Fri 11:03:57 AM 28.9689 -81.3286 217° Southwest 111 128 4,100  Climbing Jacksonville Center
Fri 11:04:59 AM 28.9442 -81.3481 215° Southwest 112 129 4,000 -344 Descending Jacksonville Center
Fri 11:05:59 AM 28.9194 -81.3792 228° Southwest 144 166 3,400 -496 Descending Jacksonville Center
Fri 11:07:00 AM 28.9075 -81.4197 251° West 132 152 3,000 -157 Descending Jacksonville Center
Fri 11:08:32 AM 28.9000 -81.4667 260° West 123 142 3,000  Level Orlando TRACON
Fri 11:09:32 AM 28.8833 -81.5167 249° West 114 131 3,000 50 Level Orlando TRACON
Fri 11:10:32 AM 28.8667 -81.5167 180° South 106 122 3,100 50 Climbing Orlando TRACON
Fri 11:11:32 AM 28.8333 -81.5333 204° Southwest 113 130 3,100 -250 Level Orlando TRACON
Fri 11:12:32 AM 28.8000 -81.5167 156° South 128 147 2,600 -500 Descending Orlando TRACON
Fri 11:13:32 AM 28.7833 -81.4833 120° Southeast 110 127 2,100 -250 Descending Orlando TRACON
Fri 11:14:32 AM 28.7833 -81.4667 90° East 96 110 2,100 -50 Level Orlando TRACON
Fri 11:15:33 AM 28.7833 -81.4167 90° East 108 124 2,000  Descending Orlando TRACON
Fri 11:16:39 AM 28.7833 -81.3833 90° East 115 132 2,100 -95 Climbing Orlando TRACON
Fri 11:17:39 AM 28.7833 -81.3500 90° East 102 117 1,800 -400 Descending Orlando TRACON
Fri 11:18:39 AM 28.7833 -81.3167 90° East 92 106 1,300 -500 Descending Orlando TRACON

Login

Don't have an account? Register now (free) for customized features, flight alerts, and more!